createdAt,value
2018-06-22T00:01:50.517Z,74.53
2018-06-22T00:04:18.839Z,74.53
2018-06-22T00:06:47.156Z,74.58
2018-06-22T00:09:15.470Z,75.16
2018-06-22T00:11:43.789Z,75.17
2018-06-22T00:14:11.538Z,75.38
2018-06-22T00:16:40.434Z,75.81
2018-06-22T00:19:08.175Z,75.88
2018-06-22T00:21:37.074Z,75.93
2018-06-22T00:24:05.396Z,76.08
2018-06-22T00:26:33.722Z,75.90
2018-06-22T00:29:02.037Z,75.77
2018-06-22T00:31:29.769Z,75.78
2018-06-22T00:33:58.082Z,75.61
2018-06-22T00:36:26.993Z,75.36
2018-06-22T00:38:55.307Z,75.35
2018-06-22T00:41:23.626Z,75.41
2018-06-22T00:43:51.365Z,75.53
2018-06-22T00:46:20.267Z,75.49
2018-06-22T00:48:48.581Z,75.38
2018-06-22T00:51:16.897Z,75.36
2018-06-22T00:54:02.953Z,75.55
2018-06-22T00:56:31.343Z,75.73
2018-06-22T00:58:59.669Z,75.83
2018-06-22T01:01:27.409Z,76.42
2018-06-22T01:03:56.305Z,76.42
2018-06-22T01:06:24.049Z,76.84
2018-06-22T01:08:52.949Z,76.87
2018-06-22T01:11:21.266Z,77.34
2018-06-22T01:13:49.001Z,77.57
2018-06-22T01:16:17.899Z,77.71
2018-06-22T01:18:46.456Z,77.59
2018-06-22T01:21:14.556Z,77.54
2018-06-22T01:23:42.280Z,77.59
2018-06-22T01:26:10.652Z,77.58
2018-06-22T01:28:39.493Z,77.72
2018-06-22T01:31:07.821Z,77.78
2018-06-22T01:33:36.146Z,77.76
2018-06-22T01:36:03.888Z,77.64
2018-06-22T01:38:32.778Z,77.56
2018-06-22T01:41:00.525Z,77.83
2018-06-22T01:43:29.418Z,78.33
2018-06-22T01:45:57.741Z,80.36
2018-06-22T01:48:26.057Z,81.28
2018-06-22T01:50:54.376Z,80.60
2018-06-22T01:53:22.186Z,81.06
2018-06-22T01:55:50.503Z,80.86
2018-06-22T01:58:20.362Z,81.00
2018-06-22T02:00:48.680Z,80.63
2018-06-22T02:03:16.412Z,80.45
2018-06-22T02:05:45.350Z,80.44
2018-06-22T02:08:13.636Z,80.49
2018-06-22T02:10:41.955Z,80.51
2018-06-22T02:13:09.687Z,80.51
2018-06-22T02:15:38.007Z,80.70
2018-06-22T02:18:06.896Z,80.77
2018-06-22T02:20:35.225Z,80.74
2018-06-22T02:23:03.537Z,80.80
2018-06-22T02:25:31.862Z,80.49
2018-06-22T02:28:00.189Z,80.33
2018-06-22T02:32:56.835Z,80.12
2018-06-22T02:35:25.142Z,80.14
2018-06-22T02:37:53.461Z,80.01
2018-06-22T02:40:21.779Z,80.09
2018-06-22T02:42:50.113Z,79.90
2018-06-22T02:45:17.856Z,79.91
2018-06-22T02:47:46.751Z,79.87
2018-06-22T02:50:14.489Z,79.68
2018-06-22T02:52:43.387Z,79.39
2018-06-22T02:55:11.706Z,79.27
2018-06-22T02:57:40.015Z,78.92
2018-06-22T03:00:08.385Z,78.71
2018-06-22T03:02:36.126Z,78.22
2018-06-22T03:05:04.462Z,78.10
2018-06-22T03:07:33.358Z,77.94
2018-06-22T03:10:01.682Z,77.89
2018-06-22T03:12:30.002Z,77.89
2018-06-22T03:14:58.314Z,77.81
2018-06-22T03:17:26.121Z,77.84
2018-06-22T03:19:54.962Z,77.83
2018-06-22T03:22:23.284Z,77.73
2018-06-22T03:24:51.022Z,77.74
2018-06-22T03:27:19.921Z,77.76
2018-06-22T03:29:47.664Z,77.86
2018-06-22T03:32:15.979Z,77.79
2018-06-22T03:34:44.322Z,77.55
2018-06-22T03:37:12.641Z,77.06
2018-06-22T03:39:41.541Z,77.22
2018-06-22T03:42:09.862Z,76.95
2018-06-22T03:44:38.189Z,77.18
2018-06-22T03:47:06.500Z,77.05
2018-06-22T03:49:34.826Z,76.99
2018-06-22T03:52:03.134Z,76.75
2018-06-22T03:54:31.460Z,76.50
2018-06-22T03:56:59.775Z,76.24
2018-06-22T03:59:28.097Z,76.37
2018-06-22T04:01:56.450Z,76.38
2018-06-22T04:04:24.770Z,76.27
2018-06-22T04:06:53.085Z,76.24
2018-06-22T04:09:21.398Z,75.92
2018-06-22T04:11:49.718Z,75.82
2018-06-22T04:14:18.028Z,75.64
2018-06-22T04:16:45.785Z,75.57
2018-06-22T04:19:14.681Z,75.58
2018-06-22T04:21:42.417Z,75.59
2018-06-22T04:24:11.321Z,75.09
2018-06-22T04:26:39.064Z,75.09
2018-06-22T04:29:07.387Z,75.25
2018-06-22T04:31:35.704Z,75.14
2018-06-22T04:34:04.610Z,74.96
2018-06-22T04:36:32.358Z,74.64
2018-06-22T04:39:00.696Z,74.37
2018-06-22T04:41:29.819Z,74.07
2018-06-22T04:43:57.928Z,73.88
2018-06-22T04:46:26.245Z,73.88
2018-06-22T04:48:53.990Z,73.34
2018-06-22T04:51:22.891Z,72.76
2018-06-22T04:53:51.213Z,72.81
2018-06-22T04:56:18.966Z,72.55
2018-06-22T04:58:47.859Z,71.29
2018-06-22T05:01:15.618Z,70.50
2018-06-22T05:03:44.570Z,70.57
2018-06-22T05:06:12.872Z,70.72
2018-06-22T05:08:41.194Z,70.59
2018-06-22T05:11:09.518Z,70.92
2018-06-22T05:13:37.267Z,71.22
2018-06-22T05:16:06.174Z,71.35
2018-06-22T05:18:34.629Z,71.01
2018-06-22T05:21:02.956Z,69.81
2018-06-22T05:23:31.277Z,70.12
2018-06-22T05:25:59.604Z,70.12
2018-06-22T05:28:27.915Z,69.49
2018-06-22T05:30:55.654Z,70.00
2018-06-22T05:33:24.862Z,69.98
2018-06-22T05:35:53.215Z,68.85
2018-06-22T05:38:21.521Z,69.15
2018-06-22T05:40:50.125Z,68.85
2018-06-22T05:43:18.224Z,68.79
2018-06-22T05:45:45.957Z,68.64
2018-06-22T05:48:14.278Z,68.21
2018-06-22T05:50:43.223Z,68.07
2018-06-22T05:53:11.503Z,67.80
2018-06-22T05:55:39.844Z,68.10
2018-06-22T05:58:07.586Z,68.52
2018-06-22T06:00:35.901Z,68.08
2018-06-22T06:03:04.806Z,68.24
2018-06-22T06:05:32.606Z,68.35
2018-06-22T06:08:01.854Z,68.16
2018-06-22T06:10:30.762Z,68.06
2018-06-22T06:12:58.506Z,67.83
2018-06-22T06:15:27.406Z,67.71
2018-06-22T06:17:55.748Z,67.56
2018-06-22T06:20:24.115Z,67.34
2018-06-22T06:22:51.849Z,67.28
2018-06-22T06:25:20.754Z,67.09
2018-06-22T06:27:49.076Z,66.44
2018-06-22T06:30:17.396Z,66.97
2018-06-22T06:32:45.737Z,66.83
2018-06-22T06:35:13.486Z,67.16
2018-06-22T06:37:42.378Z,66.88
2018-06-22T06:40:10.709Z,66.77
2018-06-22T06:42:39.030Z,66.45
2018-06-22T06:45:06.866Z,66.23
2018-06-22T06:47:35.773Z,66.05
2018-06-22T06:50:04.095Z,66.07
2018-06-22T06:52:32.412Z,65.38
2018-06-22T06:55:00.735Z,66.02
2018-06-22T06:57:29.066Z,66.03
2018-06-22T06:59:56.796Z,66.02
2018-06-22T07:02:27.098Z,66.19
2018-06-22T07:04:55.390Z,66.25
2018-06-22T07:07:23.891Z,65.01
2018-06-22T07:09:52.223Z,65.29
2018-06-22T07:12:19.991Z,65.72
2018-06-22T07:14:49.067Z,65.54
2018-06-22T07:17:17.398Z,65.45
2018-06-22T07:19:45.697Z,65.56
2018-06-22T07:22:14.013Z,65.44
2018-06-22T07:24:42.353Z,64.95
2018-06-22T07:27:10.686Z,64.58
2018-06-22T07:29:39.000Z,63.70
2018-06-22T07:32:07.321Z,64.45
2018-06-22T07:34:35.080Z,64.67
2018-06-22T07:37:03.974Z,64.30
2018-06-22T07:39:32.771Z,63.52
2018-06-22T07:42:01.091Z,62.62
2018-06-22T07:44:29.410Z,62.44
2018-06-22T07:46:57.723Z,62.06
2018-06-22T07:49:26.038Z,61.91
2018-06-22T07:51:54.357Z,62.01
2018-06-22T07:54:22.679Z,61.44
2018-06-22T07:56:51.240Z,62.04
2018-06-22T07:59:18.974Z,62.16
2018-06-22T08:01:47.875Z,62.89
2018-06-22T08:04:16.191Z,63.17
2018-06-22T08:06:44.515Z,63.60
2018-06-22T08:09:12.887Z,62.98
2018-06-22T08:11:41.209Z,63.10
2018-06-22T08:14:12.765Z,63.39
2018-06-22T08:16:41.203Z,62.91
2018-06-22T08:19:11.651Z,63.28
2018-06-22T08:21:42.420Z,63.08
2018-06-22T08:24:09.423Z,62.70
2018-06-22T08:26:37.816Z,62.30
2018-06-22T08:29:06.085Z,62.75
2018-06-22T08:31:34.413Z,62.34
2018-06-22T08:34:02.745Z,62.78
2018-06-22T08:36:31.107Z,62.05
2018-06-22T08:38:59.434Z,61.39
2018-06-22T08:41:27.808Z,61.95
2018-06-22T08:43:55.765Z,62.00
2018-06-22T08:46:24.665Z,62.72
2018-06-22T08:48:55.155Z,63.99
2018-06-22T08:51:21.897Z,65.44
2018-06-22T08:53:50.233Z,65.87
2018-06-22T08:56:18.572Z,66.67
2018-06-22T08:58:48.367Z,66.11
2018-06-22T09:01:16.753Z,65.84
2018-06-22T09:03:46.827Z,65.33
2018-06-22T09:06:15.167Z,65.11
2018-06-22T09:08:43.493Z,65.77
2018-06-22T09:11:14.968Z,65.19
2018-06-22T09:13:40.362Z,65.96
2018-06-22T09:16:08.828Z,66.22
2018-06-22T09:18:37.176Z,67.73
2018-06-22T09:21:05.896Z,68.50
2018-06-22T09:23:33.877Z,69.16
2018-06-22T09:26:02.265Z,68.86
2018-06-22T09:28:30.937Z,69.39
2018-06-22T09:30:59.281Z,69.04
2018-06-22T09:33:27.849Z,69.15
2018-06-22T09:35:55.994Z,69.10
2018-06-22T09:38:24.972Z,69.12
2018-06-22T09:40:53.317Z,69.16
2018-06-22T09:43:22.978Z,69.30
2018-06-22T09:45:51.092Z,68.64
2018-06-22T09:48:21.061Z,68.37
2018-06-22T09:50:49.122Z,68.71
2018-06-22T09:53:17.609Z,70.58
2018-06-22T09:55:44.600Z,70.14
2018-06-22T09:58:13.142Z,68.76
2018-06-22T10:00:46.491Z,68.38
2018-06-22T10:03:14.230Z,67.77
2018-06-22T10:05:43.136Z,66.73
2018-06-22T10:08:11.483Z,68.60
2018-06-22T10:10:39.233Z,67.67
2018-06-22T10:13:07.618Z,67.32
2018-06-22T10:15:35.943Z,67.40
2018-06-22T10:18:04.855Z,67.68
2018-06-22T10:20:33.192Z,66.33
2018-06-22T10:23:00.965Z,66.23
2018-06-22T10:25:29.884Z,66.10
2018-06-22T10:27:57.651Z,66.01
2018-06-22T10:30:25.974Z,65.57
2018-06-22T10:32:55.105Z,65.28
2018-06-22T10:35:23.237Z,64.75
2018-06-22T10:37:51.558Z,63.52
2018-06-22T10:40:19.882Z,64.50
2018-06-22T10:42:48.246Z,64.01
2018-06-22T10:45:16.578Z,63.76
2018-06-22T10:47:44.905Z,62.31
2018-06-22T10:50:13.230Z,61.62
2018-06-22T10:52:41.578Z,61.80
2018-06-22T10:55:09.317Z,62.39
2018-06-22T10:57:37.647Z,62.90
2018-06-22T11:00:06.567Z,63.19
2018-06-22T11:02:34.904Z,62.14
2018-06-22T11:05:03.224Z,62.06
2018-06-22T11:07:31.553Z,62.18
2018-06-22T11:09:59.878Z,61.70
2018-06-22T11:12:28.214Z,60.29
2018-06-22T11:14:56.019Z,60.57
2018-06-22T11:17:24.949Z,60.92
2018-06-22T11:19:53.289Z,60.40
2018-06-22T11:22:21.074Z,59.26
2018-06-22T11:24:49.493Z,59.44
2018-06-22T11:27:18.402Z,59.72
2018-06-22T11:29:46.101Z,59.22
2018-06-22T11:32:15.019Z,59.65
2018-06-22T11:34:43.339Z,59.71
2018-06-22T11:37:11.095Z,59.23
2018-06-22T11:39:39.433Z,58.88
2018-06-22T11:42:08.337Z,58.73
2018-06-22T11:44:36.665Z,57.44
2018-06-22T11:47:04.991Z,57.04
2018-06-22T11:49:33.314Z,57.60
2018-06-22T11:52:01.654Z,56.68
2018-06-22T11:54:29.972Z,57.07
2018-06-22T11:56:58.305Z,57.03
2018-06-22T11:59:26.062Z,56.36
2018-06-22T12:01:54.974Z,56.31
2018-06-22T12:04:23.302Z,55.49
2018-06-22T12:06:51.072Z,54.39
2018-06-22T12:09:19.957Z,55.06
2018-06-22T12:11:48.313Z,55.69
2018-06-22T12:14:16.634Z,54.73
2018-06-22T12:16:44.427Z,54.31
2018-06-22T12:19:12.834Z,54.34
2018-06-22T12:21:41.697Z,54.71
2018-06-22T12:24:10.515Z,53.81
2018-06-22T12:26:38.252Z,53.48
2018-06-22T12:29:07.146Z,55.51
2018-06-22T12:31:35.475Z,55.96
2018-06-22T12:34:04.074Z,54.81
2018-06-22T12:36:32.456Z,54.84
2018-06-22T12:39:00.817Z,53.49
2018-06-22T12:41:30.295Z,53.56
2018-06-22T12:43:57.599Z,53.02
2018-06-22T12:46:26.285Z,52.75
2018-06-22T12:48:53.822Z,52.75
2018-06-22T12:51:22.755Z,51.76
2018-06-22T12:53:51.049Z,52.30
2018-06-22T12:56:19.384Z,52.06
2018-06-22T12:58:47.736Z,52.23
2018-06-22T13:01:16.073Z,52.35
2018-06-22T13:03:44.419Z,52.23
2018-06-22T13:06:12.752Z,50.49
2018-06-22T13:08:41.080Z,49.63
2018-06-22T13:11:09.407Z,49.58
2018-06-22T13:13:37.745Z,49.30
2018-06-22T13:16:06.063Z,49.05
2018-06-22T13:18:34.465Z,46.13
2018-06-22T13:21:02.806Z,47.25
2018-06-22T13:23:31.119Z,46.21
2018-06-22T13:25:59.458Z,46.87
2018-06-22T13:28:27.777Z,46.38
2018-06-22T13:30:56.123Z,46.69
2018-06-22T13:33:24.459Z,47.41
2018-06-22T13:35:52.908Z,47.84
2018-06-22T13:38:21.219Z,49.54
2018-06-22T13:40:49.554Z,52.24
2018-06-22T13:43:17.887Z,54.32
2018-06-22T13:45:46.217Z,55.37
2018-06-22T13:48:14.557Z,55.78
2018-06-22T13:50:42.900Z,54.92
2018-06-22T13:53:10.655Z,52.70
2018-06-22T13:55:39.556Z,52.32
2018-06-22T13:58:07.900Z,50.67
2018-06-22T14:00:36.223Z,50.12
2018-06-22T14:03:04.551Z,48.79
2018-06-22T14:05:35.277Z,47.37
2018-06-22T14:08:04.215Z,46.21
2018-06-22T14:10:31.965Z,44.82
2018-06-22T14:13:00.877Z,45.75
2018-06-22T14:15:29.210Z,45.08
2018-06-22T14:17:58.877Z,45.11
2018-06-22T14:20:25.900Z,45.26
2018-06-22T14:22:54.227Z,45.02
2018-06-22T14:25:42.634Z,44.54
2018-06-22T14:28:11.009Z,45.07
2018-06-22T14:30:39.333Z,46.03
2018-06-22T14:33:07.081Z,47.51
2018-06-22T14:35:35.986Z,48.73
2018-06-22T14:38:04.317Z,52.18
2018-06-22T14:40:32.639Z,52.11
2018-06-22T14:43:00.978Z,54.02
2018-06-22T14:45:29.312Z,53.76
2018-06-22T14:47:57.646Z,52.64
2018-06-22T14:50:25.975Z,50.94
2018-06-22T14:52:54.343Z,50.69
2018-06-22T14:55:28.586Z,49.10
2018-06-22T14:57:59.887Z,47.58
2018-06-22T15:00:33.888Z,45.85
2018-06-22T15:03:07.184Z,44.43
2018-06-22T15:05:39.472Z,42.27
2018-06-22T15:08:07.844Z,37.14
2018-06-22T15:10:36.190Z,39.39
2018-06-22T15:13:03.933Z,37.98
2018-06-22T15:15:32.825Z,38.62
2018-06-22T15:18:00.573Z,39.22
2018-06-22T15:20:29.532Z,39.59
2018-06-22T15:22:57.867Z,38.70
2018-06-22T15:25:32.686Z,38.93
2018-06-22T15:28:01.069Z,39.16
2018-06-22T15:30:29.390Z,37.59
2018-06-22T15:32:57.711Z,38.37
2018-06-22T15:35:25.453Z,37.34
2018-06-22T15:38:00.399Z,36.97
2018-06-22T15:40:31.580Z,38.35
2018-06-22T15:43:01.397Z,38.61
2018-06-22T15:45:29.727Z,38.00
2018-06-22T15:48:01.521Z,37.47
2018-06-22T15:50:33.839Z,38.01
2018-06-22T15:53:03.209Z,37.63
2018-06-22T15:55:31.656Z,37.72
2018-06-22T15:58:00.349Z,38.70
2018-06-22T16:00:28.677Z,39.86
2018-06-22T16:02:57.007Z,40.64
2018-06-22T16:05:24.762Z,40.58
2018-06-22T16:07:53.136Z,40.54
2018-06-22T16:10:21.457Z,38.88
2018-06-22T16:12:50.479Z,39.10
2018-06-22T16:15:18.805Z,39.15
2018-06-22T16:17:47.156Z,38.84
2018-06-22T16:20:15.469Z,38.76
2018-06-22T16:22:45.082Z,38.70
2018-06-22T16:25:14.337Z,38.89
2018-06-22T16:27:43.247Z,38.28
2018-06-22T16:30:11.578Z,38.74
2018-06-22T16:32:39.899Z,39.54
2018-06-22T16:35:07.646Z,39.95
2018-06-22T16:37:36.552Z,39.46
2018-06-22T16:40:04.887Z,39.95
2018-06-22T16:42:33.232Z,39.71
2018-06-22T16:45:01.556Z,40.06
2018-06-22T16:47:29.889Z,40.29
2018-06-22T16:49:58.240Z,40.46
2018-06-22T16:52:26.594Z,40.92
2018-06-22T16:54:54.342Z,41.09
2018-06-22T16:57:23.664Z,40.92
2018-06-22T16:59:51.985Z,40.19
2018-06-22T17:02:20.316Z,40.47
2018-06-22T17:04:48.719Z,40.84
2018-06-22T17:07:17.036Z,41.39
2018-06-22T17:09:47.677Z,42.36
2018-06-22T17:12:17.478Z,43.73
2018-06-22T17:14:46.132Z,45.00
2018-06-22T17:19:46.366Z,47.48
2018-06-22T17:22:14.697Z,48.18
2018-06-22T17:24:42.886Z,48.80
2018-06-22T17:27:11.782Z,48.86
2018-06-22T17:29:40.135Z,49.70
2018-06-22T17:32:08.465Z,50.61
2018-06-22T17:34:36.783Z,50.98
2018-06-22T17:37:05.128Z,51.37
2018-06-22T17:39:33.461Z,52.29
2018-06-22T17:42:01.198Z,52.61
2018-06-22T17:44:29.525Z,52.95
2018-06-22T17:46:58.426Z,53.20
2018-06-22T17:49:26.742Z,53.55
2018-06-22T17:51:55.075Z,54.30
2018-06-22T17:54:23.400Z,54.48
2018-06-22T17:56:51.739Z,54.09
2018-06-22T17:59:20.065Z,54.31
2018-06-22T18:01:53.251Z,53.88
2018-06-22T18:04:21.001Z,53.78
2018-06-22T18:06:49.899Z,53.42
2018-06-22T18:09:18.236Z,53.92
2018-06-22T18:11:48.386Z,53.74
2018-06-22T18:14:16.122Z,54.13
2018-06-22T18:16:44.446Z,54.34
2018-06-22T18:19:24.194Z,54.73
2018-06-22T18:21:52.683Z,54.69
2018-06-22T18:24:20.437Z,55.01
2018-06-22T18:26:49.372Z,55.13
2018-06-22T18:29:17.697Z,55.05
2018-06-22T18:31:46.047Z,55.02
2018-06-22T18:34:13.795Z,55.12
2018-06-22T18:36:42.701Z,55.24
2018-06-22T18:39:11.030Z,55.46
2018-06-22T18:41:39.353Z,55.49
2018-06-22T18:44:07.689Z,55.79
2018-06-22T18:46:36.018Z,55.95
2018-06-22T18:49:04.347Z,56.29
2018-06-22T18:51:32.661Z,56.62
2018-06-22T18:54:01.717Z,56.88
2018-06-22T18:56:35.238Z,56.84
2018-06-22T18:59:07.675Z,57.03
2018-06-22T19:01:37.227Z,57.12
2018-06-22T19:04:05.556Z,57.05
2018-06-22T19:06:33.916Z,57.37
2018-06-22T19:09:01.658Z,57.37
2018-06-22T19:11:29.981Z,57.51
2018-06-22T19:13:58.896Z,57.60
2018-06-22T19:16:27.222Z,57.85
2018-06-22T19:18:55.558Z,58.22
2018-06-22T19:21:23.894Z,58.55
2018-06-22T19:23:51.632Z,58.27
2018-06-22T19:26:20.536Z,58.41
2018-06-22T19:28:48.933Z,58.60
2018-06-22T19:31:17.252Z,58.45
2018-06-22T19:33:45.625Z,58.42
2018-06-22T19:36:13.970Z,58.35
2018-06-22T19:38:41.723Z,58.45
2018-06-22T19:41:10.638Z,58.59
2018-06-22T19:43:38.975Z,58.77
2018-06-22T19:46:07.309Z,59.00
2018-06-22T19:48:35.097Z,59.17
2018-06-22T19:51:04.008Z,59.24
2018-06-22T19:53:33.185Z,59.37
2018-06-22T19:56:01.509Z,59.65
2018-06-22T19:58:29.249Z,59.76
2018-06-22T20:00:57.581Z,60.02
2018-06-22T20:03:26.482Z,60.28
2018-06-22T20:05:54.230Z,60.52
2018-06-22T20:08:23.134Z,60.66
2018-06-22T20:10:51.528Z,60.72
2018-06-22T20:13:19.839Z,60.72
2018-06-22T20:15:48.167Z,61.08
2018-06-22T20:18:16.495Z,61.09
2018-06-22T20:20:44.245Z,61.51
2018-06-22T20:23:13.145Z,61.62
2018-06-22T20:25:44.850Z,61.85
2018-06-22T20:28:14.747Z,62.16
2018-06-22T20:30:43.256Z,62.26
2018-06-22T20:33:11.581Z,62.43
2018-06-22T20:35:43.071Z,62.58
2018-06-22T20:38:12.460Z,62.68
2018-06-22T20:40:42.689Z,62.91
2018-06-22T20:43:11.038Z,62.98
2018-06-22T20:45:38.810Z,63.09
2018-06-22T20:48:11.550Z,63.07
2018-06-22T20:50:39.895Z,63.29
2018-06-22T20:53:08.356Z,63.40
2018-06-22T20:55:36.718Z,63.60
2018-06-22T20:58:04.461Z,63.50
2018-06-22T21:00:33.369Z,63.68
2018-06-22T21:03:01.119Z,63.63
2018-06-22T21:05:29.440Z,63.85
2018-06-22T21:07:58.348Z,63.82
2018-06-22T21:10:26.094Z,63.79
2018-06-22T21:12:54.472Z,63.71
2018-06-22T21:15:23.325Z,63.59
2018-06-22T21:17:51.648Z,63.61
2018-06-22T21:20:19.966Z,63.75
2018-06-22T21:22:47.716Z,63.80
2018-06-22T21:25:16.617Z,63.83
2018-06-22T21:27:44.941Z,64.09
2018-06-22T21:30:15.038Z,64.16
2018-06-22T21:32:48.366Z,64.13
2018-06-22T21:35:16.735Z,64.20
2018-06-22T21:37:48.668Z,64.27
2018-06-22T21:40:16.985Z,64.45
2018-06-22T21:42:44.724Z,64.57
2018-06-22T21:45:13.626Z,64.74
2018-06-22T21:47:41.958Z,64.71
2018-06-22T21:50:09.699Z,64.93
2018-06-22T21:52:38.269Z,64.97
2018-06-22T21:55:06.365Z,65.03
2018-06-22T21:57:35.272Z,65.34
2018-06-22T22:00:03.599Z,65.48
2018-06-22T22:02:31.925Z,65.61
2018-06-22T22:04:59.744Z,65.60
2018-06-22T22:07:28.588Z,65.66
2018-06-22T22:09:56.939Z,66.01
2018-06-22T22:12:25.264Z,66.06
2018-06-22T22:14:53.587Z,66.06
2018-06-22T22:17:21.915Z,65.88
2018-06-22T22:19:50.232Z,65.59
2018-06-22T22:22:18.560Z,65.59
2018-06-22T22:24:46.884Z,65.56
2018-06-22T22:27:14.942Z,65.24
2018-06-22T22:29:43.847Z,65.35
2018-06-22T22:32:12.209Z,65.28
2018-06-22T22:34:39.977Z,65.22
2018-06-22T22:37:08.891Z,65.30
2018-06-22T22:39:36.628Z,65.43
2018-06-22T22:42:04.958Z,65.64
2018-06-22T22:44:33.863Z,65.70
2018-06-22T22:47:02.402Z,65.97
2018-06-22T22:49:30.513Z,66.16
2018-06-22T22:51:58.533Z,66.29
2018-06-22T22:54:26.578Z,66.17
2018-06-22T22:56:55.474Z,65.89
2018-06-22T22:59:23.217Z,65.23
2018-06-22T23:01:52.108Z,64.82
2018-06-22T23:04:20.440Z,64.74
2018-06-22T23:06:48.208Z,64.71
2018-06-22T23:09:17.102Z,64.66
2018-06-22T23:11:45.427Z,64.60
2018-06-22T23:14:13.732Z,64.71
2018-06-22T23:16:42.053Z,64.68
2018-06-22T23:19:09.823Z,64.68
2018-06-22T23:21:38.709Z,64.80
2018-06-22T23:24:07.028Z,64.87
2018-06-22T23:26:35.346Z,64.94
2018-06-22T23:29:03.687Z,64.85
2018-06-22T23:31:31.439Z,64.79
2018-06-22T23:34:00.347Z,64.71
2018-06-22T23:36:28.160Z,64.80
2018-06-22T23:38:57.066Z,65.02
2018-06-22T23:41:25.388Z,65.17
2018-06-22T23:43:53.733Z,65.40
2018-06-22T23:46:22.113Z,65.54
2018-06-22T23:48:49.912Z,65.69
2018-06-22T23:51:18.233Z,65.64
2018-06-22T23:53:47.132Z,65.84
2018-06-22T23:56:15.442Z,66.07
2018-06-22T23:58:43.185Z,66.37
